Great Bend, KS (67530)

7:16 PM CST on February 09, 2016 (GMT -0600)
Edgepark Addition | | Change Station
CLOSE
Current Station
Personal Weather Station
Location: Great Bend, KS
Elevation: 1880 ft
Nearby Weather Stations

Elev 1880 ft 38.38 °N, 98.77 °W | Updated 10 seconds ago

Overcast
Overcast
32.9 °F
Feels Like 33 °F
N
0.9
Wind Variable Wind from ENE
Gusts 2.5 mph

Today
High -- | Low -- °F
--% Chance of Precip.
Yesterday
High -- | Low -- °F
Precip. -- in
Pressure 30.28 in
Visibility 10.0 miles
Clouds Overcast 7000 ft
Windchill 33 °F
Dew Point 18 °F
Humidity 55%
Rainfall 0.00 in
Snow Depth Not available.
7:33 AM 6:06 PM
Waxing Crescent, 3% visible
METAR KGBD 100115Z AUTO 08005KT 10SM OVC070 00/M09 A3028 RMK AO1
Pressure 30.28 in
Visibility 10.0 miles
Clouds Overcast 7000 ft
Windchill 33 °F
Dew Point 18 °F
Humidity 55%
Rainfall 0.00 in
Snow Depth Not available.
7:33 AM 6:06 PM
Waxing Crescent, 3% visible
METAR KGBD 100115Z AUTO 08005KT 10SM OVC070 00/M09 A3028 RMK AO1

10-Day Weather Forecast

Almanac

Astronomy

Feb. 09, 2016 Rise Set
Actual Time
Civil Twilight
Nautical Twilight
Astronomical Twilight
Moon
Length of Visible Light
Length of Day
Tomorrow will be .
, % of the Moon is Illuminated

Today's Extremes

State Highs State Lows

Community

WunderPhotos

Upload Photos

1,891,752 photos uploaded!

WunderBlog® & News

Nearby

Air Quality

  Air Quality AQ Index Pollutant
Not available.

Snow Depth

Station Depth Elevation

Earthquake Activity

City Distance Mag. Time & Date
Minimum magnitude displayed is 2.5.

Coastal Water Temperatures

Place Temperature

Stations

Nearby Weather Stations

Station Location Temp. Windchill Dew Point Humidity Wind Precip. Elev Updated Type
                   

Watches & Warnings

There are currently no watches in effect.